sensor_id;sensor_type;location;lat;lon;timestamp;temperature;humidity
13332;DHT22;6735;51.456;12.626;2023-03-24T00:02:09;10.50;83.20
13332;DHT22;6735;51.456;12.626;2023-03-24T00:04:35;10.60;82.90
13332;DHT22;6735;51.456;12.626;2023-03-24T00:07:01;10.70;82.80
13332;DHT22;6735;51.456;12.626;2023-03-24T00:09:28;10.80;82.50
13332;DHT22;6735;51.456;12.626;2023-03-24T00:11:55;10.80;82.50
13332;DHT22;6735;51.456;12.626;2023-03-24T00:14:20;10.90;82.40
13332;DHT22;6735;51.456;12.626;2023-03-24T00:16:47;11.00;82.20
13332;DHT22;6735;51.456;12.626;2023-03-24T00:19:14;11.00;82.00
13332;DHT22;6735;51.456;12.626;2023-03-24T00:21:40;11.00;81.90
13332;DHT22;6735;51.456;12.626;2023-03-24T00:24:07;11.10;81.70
13332;DHT22;6735;51.456;12.626;2023-03-24T00:26:34;11.10;81.70
13332;DHT22;6735;51.456;12.626;2023-03-24T00:29:02;11.10;81.60
13332;DHT22;6735;51.456;12.626;2023-03-24T00:31:29;11.10;81.70
13332;DHT22;6735;51.456;12.626;2023-03-24T00:33:54;11.20;81.60
13332;DHT22;6735;51.456;12.626;2023-03-24T00:36:21;11.20;81.60
13332;DHT22;6735;51.456;12.626;2023-03-24T00:38:48;11.20;81.50
13332;DHT22;6735;51.456;12.626;2023-03-24T00:41:15;11.30;81.30
13332;DHT22;6735;51.456;12.626;2023-03-24T00:43:45;11.30;81.30
13332;DHT22;6735;51.456;12.626;2023-03-24T00:46:13;11.30;81.20
13332;DHT22;6735;51.456;12.626;2023-03-24T00:48:52;11.30;81.30
13332;DHT22;6735;51.456;12.626;2023-03-24T00:51:22;11.40;81.20
13332;DHT22;6735;51.456;12.626;2023-03-24T00:53:48;11.40;81.20
13332;DHT22;6735;51.456;12.626;2023-03-24T00:56:13;11.40;81.10
13332;DHT22;6735;51.456;12.626;2023-03-24T00:58:39;11.40;81.10
13332;DHT22;6735;51.456;12.626;2023-03-24T01:01:05;11.40;81.00
13332;DHT22;6735;51.456;12.626;2023-03-24T01:03:31;11.40;80.90
13332;DHT22;6735;51.456;12.626;2023-03-24T01:06:00;11.40;80.90
13332;DHT22;6735;51.456;12.626;2023-03-24T01:08:26;11.30;80.90
13332;DHT22;6735;51.456;12.626;2023-03-24T01:10:53;11.30;81.10
13332;DHT22;6735;51.456;12.626;2023-03-24T01:13:24;11.20;81.00
13332;DHT22;6735;51.456;12.626;2023-03-24T01:15:51;11.20;81.10
13332;DHT22;6735;51.456;12.626;2023-03-24T01:18:18;11.20;81.20
13332;DHT22;6735;51.456;12.626;2023-03-24T01:20:45;11.20;81.20
13332;DHT22;6735;51.456;12.626;2023-03-24T01:23:20;11.20;81.40
13332;DHT22;6735;51.456;12.626;2023-03-24T01:25:46;11.20;81.30
13332;DHT22;6735;51.456;12.626;2023-03-24T01:28:14;11.20;81.50
13332;DHT22;6735;51.456;12.626;2023-03-24T01:30:40;11.20;81.50
13332;DHT22;6735;51.456;12.626;2023-03-24T01:33:07;11.20;81.60
13332;DHT22;6735;51.456;12.626;2023-03-24T01:35:33;11.20;81.60
13332;DHT22;6735;51.456;12.626;2023-03-24T01:37:59;11.20;81.70
13332;DHT22;6735;51.456;12.626;2023-03-24T01:40:31;11.20;81.80
13332;DHT22;6735;51.456;12.626;2023-03-24T01:42:57;11.20;81.90
13332;DHT22;6735;51.456;12.626;2023-03-24T01:48:09;11.30;82.40
13332;DHT22;6735;51.456;12.626;2023-03-24T01:50:36;11.30;82.50
13332;DHT22;6735;51.456;12.626;2023-03-24T01:53:02;11.30;83.10
13332;DHT22;6735;51.456;12.626;2023-03-24T01:55:30;11.30;83.50
13332;DHT22;6735;51.456;12.626;2023-03-24T01:57:58;11.30;83.50
13332;DHT22;6735;51.456;12.626;2023-03-24T02:00:24;11.30;83.70
13332;DHT22;6735;51.456;12.626;2023-03-24T02:02:54;11.30;83.90
13332;DHT22;6735;51.456;12.626;2023-03-24T02:05:28;11.30;83.90
13332;DHT22;6735;51.456;12.626;2023-03-24T02:08:11;11.40;84.00
13332;DHT22;6735;51.456;12.626;2023-03-24T02:10:38;11.40;83.90
13332;DHT22;6735;51.456;12.626;2023-03-24T02:13:04;11.40;84.20
13332;DHT22;6735;51.456;12.626;2023-03-24T02:15:31;11.50;84.20
13332;DHT22;6735;51.456;12.626;2023-03-24T02:30:03;11.60;84.00
13332;DHT22;6735;51.456;12.626;2023-03-24T02:32:46;11.60;84.00
13332;DHT22;6735;51.456;12.626;2023-03-24T02:35:40;11.70;84.10
13332;DHT22;6735;51.456;12.626;2023-03-24T02:41:27;11.70;83.80
13332;DHT22;6735;51.456;12.626;2023-03-24T02:44:10;11.80;83.70
13332;DHT22;6735;51.456;12.626;2023-03-24T02:46:44;11.90;83.60
13332;DHT22;6735;51.456;12.626;2023-03-24T02:51:59;11.90;83.70
13332;DHT22;6735;51.456;12.626;2023-03-24T02:54:58;11.90;84.00
13332;DHT22;6735;51.456;12.626;2023-03-24T02:57:47;12.00;84.10
13332;DHT22;6735;51.456;12.626;2023-03-24T03:00:34;11.90;84.50
13332;DHT22;6735;51.456;12.626;2023-03-24T03:03:06;11.90;84.70
13332;DHT22;6735;51.456;12.626;2023-03-24T03:05:41;12.00;84.80
13332;DHT22;6735;51.456;12.626;2023-03-24T03:08:11;11.90;84.90
13332;DHT22;6735;51.456;12.626;2023-03-24T03:10:42;11.90;85.10
13332;DHT22;6735;51.456;12.626;2023-03-24T03:13:25;11.90;85.10
13332;DHT22;6735;51.456;12.626;2023-03-24T03:15:59;11.90;85.20
13332;DHT22;6735;51.456;12.626;2023-03-24T03:19:17;11.90;85.30
13332;DHT22;6735;51.456;12.626;2023-03-24T03:21:21;11.90;85.40
13332;DHT22;6735;51.456;12.626;2023-03-24T03:24:01;11.90;85.60
13332;DHT22;6735;51.456;12.626;2023-03-24T03:26:30;11.90;85.70
13332;DHT22;6735;51.456;12.626;2023-03-24T03:29:00;11.90;86.00
13332;DHT22;6735;51.456;12.626;2023-03-24T03:31:50;11.80;86.10
13332;DHT22;6735;51.456;12.626;2023-03-24T03:34:40;11.80;86.00
13332;DHT22;6735;51.456;12.626;2023-03-24T03:40:19;11.80;86.20
13332;DHT22;6735;51.456;12.626;2023-03-24T03:42:46;11.80;86.30
13332;DHT22;6735;51.456;12.626;2023-03-24T03:45:12;11.90;86.30
13332;DHT22;6735;51.456;12.626;2023-03-24T03:47:39;11.90;86.40
13332;DHT22;6735;51.456;12.626;2023-03-24T03:50:06;11.80;86.30
13332;DHT22;6735;51.456;12.626;2023-03-24T03:52:33;11.90;86.20
13332;DHT22;6735;51.456;12.626;2023-03-24T03:54:59;11.90;86.30
13332;DHT22;6735;51.456;12.626;2023-03-24T03:57:25;11.90;86.30
13332;DHT22;6735;51.456;12.626;2023-03-24T03:59:51;11.90;86.20
13332;DHT22;6735;51.456;12.626;2023-03-24T04:02:42;11.90;86.20
13332;DHT22;6735;51.456;12.626;2023-03-24T04:08:16;11.90;85.90
13332;DHT22;6735;51.456;12.626;2023-03-24T04:10:58;11.90;86.10
13332;DHT22;6735;51.456;12.626;2023-03-24T04:19:48;11.90;85.80
13332;DHT22;6735;51.456;12.626;2023-03-24T04:22:53;12.00;85.90
13332;DHT22;6735;51.456;12.626;2023-03-24T04:28:17;12.00;85.60
13332;DHT22;6735;51.456;12.626;2023-03-24T04:30:49;12.00;85.40
13332;DHT22;6735;51.456;12.626;2023-03-24T04:33:23;12.00;85.40
13332;DHT22;6735;51.456;12.626;2023-03-24T04:36:04;12.00;85.50
13332;DHT22;6735;51.456;12.626;2023-03-24T04:38:32;12.00;85.60
13332;DHT22;6735;51.456;12.626;2023-03-24T04:41:01;12.00;85.50
13332;DHT22;6735;51.456;12.626;2023-03-24T04:43:28;12.00;85.40
13332;DHT22;6735;51.456;12.626;2023-03-24T04:46:00;12.10;85.30
13332;DHT22;6735;51.456;12.626;2023-03-24T04:48:26;12.10;85.30
13332;DHT22;6735;51.456;12.626;2023-03-24T04:50:57;12.10;85.30
13332;DHT22;6735;51.456;12.626;2023-03-24T04:53:23;12.10;85.10
13332;DHT22;6735;51.456;12.626;2023-03-24T04:58:17;12.10;85.00
13332;DHT22;6735;51.456;12.626;2023-03-24T05:00:44;12.10;84.90
13332;DHT22;6735;51.456;12.626;2023-03-24T05:03:11;12.10;84.90
13332;DHT22;6735;51.456;12.626;2023-03-24T05:05:49;12.10;84.80
13332;DHT22;6735;51.456;12.626;2023-03-24T05:08:15;12.10;84.70
13332;DHT22;6735;51.456;12.626;2023-03-24T05:10:41;12.10;84.60
13332;DHT22;6735;51.456;12.626;2023-03-24T05:13:07;12.10;84.60
13332;DHT22;6735;51.456;12.626;2023-03-24T05:15:33;12.20;84.60
13332;DHT22;6735;51.456;12.626;2023-03-24T05:17:59;12.20;84.50
13332;DHT22;6735;51.456;12.626;2023-03-24T05:20:26;12.20;84.40
13332;DHT22;6735;51.456;12.626;2023-03-24T05:22:51;12.20;84.20
13332;DHT22;6735;51.456;12.626;2023-03-24T05:25:18;12.20;84.30
13332;DHT22;6735;51.456;12.626;2023-03-24T05:27:45;12.20;84.30
13332;DHT22;6735;51.456;12.626;2023-03-24T05:30:11;12.20;84.20
13332;DHT22;6735;51.456;12.626;2023-03-24T05:32:37;12.20;84.00
13332;DHT22;6735;51.456;12.626;2023-03-24T05:35:03;12.30;83.90
13332;DHT22;6735;51.456;12.626;2023-03-24T05:37:29;12.30;83.90
13332;DHT22;6735;51.456;12.626;2023-03-24T05:39:54;12.30;83.80
13332;DHT22;6735;51.456;12.626;2023-03-24T05:42:20;12.30;83.60
13332;DHT22;6735;51.456;12.626;2023-03-24T05:44:46;12.40;83.60
13332;DHT22;6735;51.456;12.626;2023-03-24T05:47:12;12.40;83.50
13332;DHT22;6735;51.456;12.626;2023-03-24T05:49:40;12.30;83.50
13332;DHT22;6735;51.456;12.626;2023-03-24T05:52:07;12.40;83.50
13332;DHT22;6735;51.456;12.626;2023-03-24T05:54:34;12.40;83.30
13332;DHT22;6735;51.456;12.626;2023-03-24T05:57:00;12.40;83.00
13332;DHT22;6735;51.456;12.626;2023-03-24T05:59:27;12.40;82.90
13332;DHT22;6735;51.456;12.626;2023-03-24T06:01:53;12.40;82.70
13332;DHT22;6735;51.456;12.626;2023-03-24T06:04:21;12.50;82.80
13332;DHT22;6735;51.456;12.626;2023-03-24T06:06:47;12.50;82.50
13332;DHT22;6735;51.456;12.626;2023-03-24T06:09:12;12.50;82.60
13332;DHT22;6735;51.456;12.626;2023-03-24T06:11:42;12.50;82.50
13332;DHT22;6735;51.456;12.626;2023-03-24T06:14:07;12.60;82.30
13332;DHT22;6735;51.456;12.626;2023-03-24T06:16:33;12.60;82.10
13332;DHT22;6735;51.456;12.626;2023-03-24T06:19:03;12.60;81.80
13332;DHT22;6735;51.456;12.626;2023-03-24T06:21:31;12.70;81.90
13332;DHT22;6735;51.456;12.626;2023-03-24T06:23:56;12.70;81.80
13332;DHT22;6735;51.456;12.626;2023-03-24T06:26:23;12.70;81.70
13332;DHT22;6735;51.456;12.626;2023-03-24T06:28:48;12.70;81.80
13332;DHT22;6735;51.456;12.626;2023-03-24T06:31:19;12.80;81.60
13332;DHT22;6735;51.456;12.626;2023-03-24T06:33:50;12.80;81.20
13332;DHT22;6735;51.456;12.626;2023-03-24T06:36:16;12.90;81.50
13332;DHT22;6735;51.456;12.626;2023-03-24T06:38:42;12.90;81.00
13332;DHT22;6735;51.456;12.626;2023-03-24T06:41:08;12.90;80.80
13332;DHT22;6735;51.456;12.626;2023-03-24T06:43:34;13.00;80.60
13332;DHT22;6735;51.456;12.626;2023-03-24T06:46:00;13.10;80.80
13332;DHT22;6735;51.456;12.626;2023-03-24T06:48:25;13.10;80.70
13332;DHT22;6735;51.456;12.626;2023-03-24T06:50:52;13.10;80.50
13332;DHT22;6735;51.456;12.626;2023-03-24T06:53:18;13.20;80.50
13332;DHT22;6735;51.456;12.626;2023-03-24T06:55:46;13.20;80.30
13332;DHT22;6735;51.456;12.626;2023-03-24T06:58:12;13.20;80.30
13332;DHT22;6735;51.456;12.626;2023-03-24T07:00:39;13.30;80.30
13332;DHT22;6735;51.456;12.626;2023-03-24T07:03:05;13.30;80.00
13332;DHT22;6735;51.456;12.626;2023-03-24T07:05:32;13.30;80.00
13332;DHT22;6735;51.456;12.626;2023-03-24T07:08:02;13.30;80.10
13332;DHT22;6735;51.456;12.626;2023-03-24T07:10:28;13.40;80.00
13332;DHT22;6735;51.456;12.626;2023-03-24T07:12:53;13.40;79.90
13332;DHT22;6735;51.456;12.626;2023-03-24T07:15:19;13.50;79.60
13332;DHT22;6735;51.456;12.626;2023-03-24T07:17:44;13.60;79.40
13332;DHT22;6735;51.456;12.626;2023-03-24T07:20:10;13.80;79.20
13332;DHT22;6735;51.456;12.626;2023-03-24T07:22:35;14.00;78.80
13332;DHT22;6735;51.456;12.626;2023-03-24T07:25:02;14.10;78.00
13332;DHT22;6735;51.456;12.626;2023-03-24T07:27:29;14.20;77.50
13332;DHT22;6735;51.456;12.626;2023-03-24T07:29:57;14.20;77.60
13332;DHT22;6735;51.456;12.626;2023-03-24T07:32:23;14.20;76.50
13332;DHT22;6735;51.456;12.626;2023-03-24T07:34:49;14.20;76.40
13332;DHT22;6735;51.456;12.626;2023-03-24T07:37:14;14.20;76.10
13332;DHT22;6735;51.456;12.626;2023-03-24T07:39:40;14.20;76.60
13332;DHT22;6735;51.456;12.626;2023-03-24T07:42:06;14.20;76.80
13332;DHT22;6735;51.456;12.626;2023-03-24T07:44:31;14.30;77.00
13332;DHT22;6735;51.456;12.626;2023-03-24T07:46:57;14.40;77.10
13332;DHT22;6735;51.456;12.626;2023-03-24T07:49:23;14.40;76.70
13332;DHT22;6735;51.456;12.626;2023-03-24T07:51:48;14.60;76.00
13332;DHT22;6735;51.456;12.626;2023-03-24T07:54:15;14.70;76.40
13332;DHT22;6735;51.456;12.626;2023-03-24T07:56:40;14.80;76.30
13332;DHT22;6735;51.456;12.626;2023-03-24T07:59:06;14.80;75.20
13332;DHT22;6735;51.456;12.626;2023-03-24T08:01:35;14.90;75.40
13332;DHT22;6735;51.456;12.626;2023-03-24T08:04:01;14.90;75.30
13332;DHT22;6735;51.456;12.626;2023-03-24T08:06:27;14.90;75.40
13332;DHT22;6735;51.456;12.626;2023-03-24T08:08:54;14.80;75.00
13332;DHT22;6735;51.456;12.626;2023-03-24T08:11:19;14.80;75.30
13332;DHT22;6735;51.456;12.626;2023-03-24T08:13:46;14.80;75.20
13332;DHT22;6735;51.456;12.626;2023-03-24T08:16:11;14.80;75.20
13332;DHT22;6735;51.456;12.626;2023-03-24T08:18:37;14.90;75.30
13332;DHT22;6735;51.456;12.626;2023-03-24T08:21:02;14.90;75.00
13332;DHT22;6735;51.456;12.626;2023-03-24T08:23:28;14.90;75.20
13332;DHT22;6735;51.456;12.626;2023-03-24T08:25:54;14.90;74.80
13332;DHT22;6735;51.456;12.626;2023-03-24T08:28:19;14.90;74.90
13332;DHT22;6735;51.456;12.626;2023-03-24T08:30:45;14.90;74.90
13332;DHT22;6735;51.456;12.626;2023-03-24T08:33:14;15.00;75.00
13332;DHT22;6735;51.456;12.626;2023-03-24T08:35:41;15.00;75.00
13332;DHT22;6735;51.456;12.626;2023-03-24T08:38:08;15.10;74.70
13332;DHT22;6735;51.456;12.626;2023-03-24T08:40:35;15.10;74.70
13332;DHT22;6735;51.456;12.626;2023-03-24T08:43:03;15.20;74.40
13332;DHT22;6735;51.456;12.626;2023-03-24T08:45:30;15.40;74.50
13332;DHT22;6735;51.456;12.626;2023-03-24T08:47:58;15.40;74.00
13332;DHT22;6735;51.456;12.626;2023-03-24T08:50:28;15.50;73.40
13332;DHT22;6735;51.456;12.626;2023-03-24T08:52:55;15.60;73.20
13332;DHT22;6735;51.456;12.626;2023-03-24T08:55:21;15.60;73.20
13332;DHT22;6735;51.456;12.626;2023-03-24T08:57:47;15.60;72.50
13332;DHT22;6735;51.456;12.626;2023-03-24T09:00:15;15.70;72.80
13332;DHT22;6735;51.456;12.626;2023-03-24T09:02:46;15.80;72.30
13332;DHT22;6735;51.456;12.626;2023-03-24T09:05:13;15.90;72.40
13332;DHT22;6735;51.456;12.626;2023-03-24T09:07:40;15.90;71.10
13332;DHT22;6735;51.456;12.626;2023-03-24T09:10:07;16.10;71.50
13332;DHT22;6735;51.456;12.626;2023-03-24T09:12:34;16.20;71.40
13332;DHT22;6735;51.456;12.626;2023-03-24T09:15:00;16.40;70.50
13332;DHT22;6735;51.456;12.626;2023-03-24T09:17:25;16.60;70.30
13332;DHT22;6735;51.456;12.626;2023-03-24T09:19:50;16.80;69.50
13332;DHT22;6735;51.456;12.626;2023-03-24T09:22:16;16.90;69.00
13332;DHT22;6735;51.456;12.626;2023-03-24T09:24:41;17.00;68.90
13332;DHT22;6735;51.456;12.626;2023-03-24T09:27:08;17.20;68.40
13332;DHT22;6735;51.456;12.626;2023-03-24T09:29:34;17.40;67.40
13332;DHT22;6735;51.456;12.626;2023-03-24T09:32:00;17.50;67.60
13332;DHT22;6735;51.456;12.626;2023-03-24T09:34:25;17.50;67.50
13332;DHT22;6735;51.456;12.626;2023-03-24T09:36:51;17.50;67.50
13332;DHT22;6735;51.456;12.626;2023-03-24T09:39:17;17.40;67.60
13332;DHT22;6735;51.456;12.626;2023-03-24T09:41:43;17.30;66.70
13332;DHT22;6735;51.456;12.626;2023-03-24T09:44:24;17.40;66.80
13332;DHT22;6735;51.456;12.626;2023-03-24T09:46:58;17.60;66.60
13332;DHT22;6735;51.456;12.626;2023-03-24T09:49:28;17.50;66.50
13332;DHT22;6735;51.456;12.626;2023-03-24T09:52:06;17.50;66.20
13332;DHT22;6735;51.456;12.626;2023-03-24T09:54:43;17.50;66.50
13332;DHT22;6735;51.456;12.626;2023-03-24T09:57:21;17.50;66.30
13332;DHT22;6735;51.456;12.626;2023-03-24T09:59:47;17.50;66.40
13332;DHT22;6735;51.456;12.626;2023-03-24T10:02:17;17.40;65.80
13332;DHT22;6735;51.456;12.626;2023-03-24T10:04:43;17.40;66.20
13332;DHT22;6735;51.456;12.626;2023-03-24T10:07:16;17.60;66.00
13332;DHT22;6735;51.456;12.626;2023-03-24T10:09:45;17.70;65.20
13332;DHT22;6735;51.456;12.626;2023-03-24T10:15:00;17.70;64.60
13332;DHT22;6735;51.456;12.626;2023-03-24T10:18:00;17.70;64.60
13332;DHT22;6735;51.456;12.626;2023-03-24T10:20:59;17.60;64.70
13332;DHT22;6735;51.456;12.626;2023-03-24T10:23:44;17.50;64.50
13332;DHT22;6735;51.456;12.626;2023-03-24T10:27:12;17.40;65.20
13332;DHT22;6735;51.456;12.626;2023-03-24T10:29:29;17.40;64.40
13332;DHT22;6735;51.456;12.626;2023-03-24T10:32:01;17.20;64.90
13332;DHT22;6735;51.456;12.626;2023-03-24T10:34:29;17.20;65.10
13332;DHT22;6735;51.456;12.626;2023-03-24T10:36:59;17.20;65.40
13332;DHT22;6735;51.456;12.626;2023-03-24T10:39:27;17.20;65.20
13332;DHT22;6735;51.456;12.626;2023-03-24T10:41:53;17.10;65.00
13332;DHT22;6735;51.456;12.626;2023-03-24T10:44:20;17.20;64.90
13332;DHT22;6735;51.456;12.626;2023-03-24T10:46:51;17.40;64.40
13332;DHT22;6735;51.456;12.626;2023-03-24T10:49:19;17.70;63.90
13332;DHT22;6735;51.456;12.626;2023-03-24T10:51:53;18.00;63.20
13332;DHT22;6735;51.456;12.626;2023-03-24T10:54:26;18.20;62.60
13332;DHT22;6735;51.456;12.626;2023-03-24T11:02:32;18.40;61.80
13332;DHT22;6735;51.456;12.626;2023-03-24T11:07:41;18.30;62.00
13332;DHT22;6735;51.456;12.626;2023-03-24T11:12:58;17.60;58.30
13332;DHT22;6735;51.456;12.626;2023-03-24T11:15:34;17.20;57.60
13332;DHT22;6735;51.456;12.626;2023-03-24T11:18:14;16.80;59.00
13332;DHT22;6735;51.456;12.626;2023-03-24T11:20:46;16.50;58.80
13332;DHT22;6735;51.456;12.626;2023-03-24T11:23:19;16.30;59.80
13332;DHT22;6735;51.456;12.626;2023-03-24T11:26:01;16.20;60.00
13332;DHT22;6735;51.456;12.626;2023-03-24T11:28:27;16.10;60.00
13332;DHT22;6735;51.456;12.626;2023-03-24T11:30:54;15.90;60.00
13332;DHT22;6735;51.456;12.626;2023-03-24T11:33:29;15.90;59.80
13332;DHT22;6735;51.456;12.626;2023-03-24T11:35:58;15.70;60.50
13332;DHT22;6735;51.456;12.626;2023-03-24T11:38:30;15.80;60.50
13332;DHT22;6735;51.456;12.626;2023-03-24T11:40:58;15.80;60.10
13332;DHT22;6735;51.456;12.626;2023-03-24T11:43:26;15.80;60.30
13332;DHT22;6735;51.456;12.626;2023-03-24T11:46:11;15.80;60.10
13332;DHT22;6735;51.456;12.626;2023-03-24T11:48:49;15.70;60.10
13332;DHT22;6735;51.456;12.626;2023-03-24T11:51:36;15.70;60.10
13332;DHT22;6735;51.456;12.626;2023-03-24T11:54:05;15.60;60.60
13332;DHT22;6735;51.456;12.626;2023-03-24T11:56:39;15.60;60.80
13332;DHT22;6735;51.456;12.626;2023-03-24T11:59:30;15.60;61.00
13332;DHT22;6735;51.456;12.626;2023-03-24T12:02:19;15.70;60.80
13332;DHT22;6735;51.456;12.626;2023-03-24T12:10:29;15.50;61.20
13332;DHT22;6735;51.456;12.626;2023-03-24T12:21:53;15.50;62.20
13332;DHT22;6735;51.456;12.626;2023-03-24T12:24:25;15.40;62.40
13332;DHT22;6735;51.456;12.626;2023-03-24T12:26:57;15.40;62.70
13332;DHT22;6735;51.456;12.626;2023-03-24T12:32:32;15.30;62.80
13332;DHT22;6735;51.456;12.626;2023-03-24T12:37:57;15.10;63.20
13332;DHT22;6735;51.456;12.626;2023-03-24T12:40:43;15.20;63.40
13332;DHT22;6735;51.456;12.626;2023-03-24T12:45:56;15.10;63.00
13332;DHT22;6735;51.456;12.626;2023-03-24T12:48:50;15.10;63.30
13332;DHT22;6735;51.456;12.626;2023-03-24T12:54:27;15.30;64.60
13332;DHT22;6735;51.456;12.626;2023-03-24T12:57:01;15.20;64.80
13332;DHT22;6735;51.456;12.626;2023-03-24T12:59:32;15.20;64.90
13332;DHT22;6735;51.456;12.626;2023-03-24T13:02:08;15.10;64.80
13332;DHT22;6735;51.456;12.626;2023-03-24T13:04:38;15.10;64.50
13332;DHT22;6735;51.456;12.626;2023-03-24T13:07:11;15.00;64.10
13332;DHT22;6735;51.456;12.626;2023-03-24T13:12:42;14.80;65.70
13332;DHT22;6735;51.456;12.626;2023-03-24T13:20:53;14.60;67.00
13332;DHT22;6735;51.456;12.626;2023-03-24T13:23:48;14.40;67.30
13332;DHT22;6735;51.456;12.626;2023-03-24T13:31:32;14.20;69.30
13332;DHT22;6735;51.456;12.626;2023-03-24T13:34:02;14.20;70.70
13332;DHT22;6735;51.456;12.626;2023-03-24T13:36:41;14.20;70.30
13332;DHT22;6735;51.456;12.626;2023-03-24T13:39:15;14.20;69.90
13332;DHT22;6735;51.456;12.626;2023-03-24T13:41:51;14.10;70.20
13332;DHT22;6735;51.456;12.626;2023-03-24T13:44:38;14.20;69.80
13332;DHT22;6735;51.456;12.626;2023-03-24T13:47:17;14.10;70.40
13332;DHT22;6735;51.456;12.626;2023-03-24T13:49:57;14.10;70.40
13332;DHT22;6735;51.456;12.626;2023-03-24T13:52:36;14.10;70.50
13332;DHT22;6735;51.456;12.626;2023-03-24T13:55:11;13.90;70.60
13332;DHT22;6735;51.456;12.626;2023-03-24T13:57:47;13.80;70.70
13332;DHT22;6735;51.456;12.626;2023-03-24T14:00:21;13.80;70.60
13332;DHT22;6735;51.456;12.626;2023-03-24T14:02:49;13.70;71.10
13332;DHT22;6735;51.456;12.626;2023-03-24T14:15:39;14.00;72.80
13332;DHT22;6735;51.456;12.626;2023-03-24T14:21:05;14.00;73.10
13332;DHT22;6735;51.456;12.626;2023-03-24T14:23:46;14.00;73.10
13332;DHT22;6735;51.456;12.626;2023-03-24T14:28:51;14.10;73.10
13332;DHT22;6735;51.456;12.626;2023-03-24T14:31:33;14.20;72.80
13332;DHT22;6735;51.456;12.626;2023-03-24T14:34:13;14.30;72.80
13332;DHT22;6735;51.456;12.626;2023-03-24T14:36:42;14.10;72.90
13332;DHT22;6735;51.456;12.626;2023-03-24T14:39:28;14.10;73.00
13332;DHT22;6735;51.456;12.626;2023-03-24T14:41:56;14.10;73.10
13332;DHT22;6735;51.456;12.626;2023-03-24T14:47:23;14.10;72.70
13332;DHT22;6735;51.456;12.626;2023-03-24T14:49:52;14.10;72.50
13332;DHT22;6735;51.456;12.626;2023-03-24T14:52:33;14.10;72.40
13332;DHT22;6735;51.456;12.626;2023-03-24T14:55:06;14.20;72.60
13332;DHT22;6735;51.456;12.626;2023-03-24T14:57:45;14.20;72.40
13332;DHT22;6735;51.456;12.626;2023-03-24T15:00:16;14.30;72.00
13332;DHT22;6735;51.456;12.626;2023-03-24T15:02:48;14.40;71.50
13332;DHT22;6735;51.456;12.626;2023-03-24T15:05:23;14.40;71.10
13332;DHT22;6735;51.456;12.626;2023-03-24T15:08:13;14.30;70.90
13332;DHT22;6735;51.456;12.626;2023-03-24T15:10:53;14.30;70.60
13332;DHT22;6735;51.456;12.626;2023-03-24T15:18:53;14.60;68.10
13332;DHT22;6735;51.456;12.626;2023-03-24T15:21:33;14.60;67.90
13332;DHT22;6735;51.456;12.626;2023-03-24T15:26:51;14.40;66.50
13332;DHT22;6735;51.456;12.626;2023-03-24T15:29:17;14.30;67.70
13332;DHT22;6735;51.456;12.626;2023-03-24T15:31:42;14.20;67.30
13332;DHT22;6735;51.456;12.626;2023-03-24T15:35:09;14.20;67.10
13332;DHT22;6735;51.456;12.626;2023-03-24T15:37:29;14.40;66.50
13332;DHT22;6735;51.456;12.626;2023-03-24T15:39:55;14.30;66.80
13332;DHT22;6735;51.456;12.626;2023-03-24T15:42:22;14.30;66.70
13332;DHT22;6735;51.456;12.626;2023-03-24T15:44:48;14.40;66.90
13332;DHT22;6735;51.456;12.626;2023-03-24T15:47:20;14.40;66.40
13332;DHT22;6735;51.456;12.626;2023-03-24T15:49:53;14.30;66.50
13332;DHT22;6735;51.456;12.626;2023-03-24T15:52:33;14.30;66.60
13332;DHT22;6735;51.456;12.626;2023-03-24T15:55:27;14.20;65.30
13332;DHT22;6735;51.456;12.626;2023-03-24T15:57:55;14.20;66.00
13332;DHT22;6735;51.456;12.626;2023-03-24T16:00:36;14.30;65.80
13332;DHT22;6735;51.456;12.626;2023-03-24T16:03:03;14.20;66.00
13332;DHT22;6735;51.456;12.626;2023-03-24T16:05:32;14.20;66.00
13332;DHT22;6735;51.456;12.626;2023-03-24T16:08:04;14.20;65.70
13332;DHT22;6735;51.456;12.626;2023-03-24T16:10:41;14.20;65.70
13332;DHT22;6735;51.456;12.626;2023-03-24T16:13:20;14.20;65.60
13332;DHT22;6735;51.456;12.626;2023-03-24T16:15:51;14.10;65.80
13332;DHT22;6735;51.456;12.626;2023-03-24T16:18:37;14.00;65.90
13332;DHT22;6735;51.456;12.626;2023-03-24T16:21:14;14.00;66.20
13332;DHT22;6735;51.456;12.626;2023-03-24T16:23:40;13.90;66.30
13332;DHT22;6735;51.456;12.626;2023-03-24T16:26:16;13.90;66.20
13332;DHT22;6735;51.456;12.626;2023-03-24T16:28:42;13.80;66.50
13332;DHT22;6735;51.456;12.626;2023-03-24T16:31:16;13.70;65.90
13332;DHT22;6735;51.456;12.626;2023-03-24T16:33:43;13.70;66.20
13332;DHT22;6735;51.456;12.626;2023-03-24T16:36:10;13.70;66.40
13332;DHT22;6735;51.456;12.626;2023-03-24T16:38:36;13.70;66.30
13332;DHT22;6735;51.456;12.626;2023-03-24T16:41:02;13.70;66.30
13332;DHT22;6735;51.456;12.626;2023-03-24T16:43:27;13.60;66.40
13332;DHT22;6735;51.456;12.626;2023-03-24T16:45:54;13.60;66.50
13332;DHT22;6735;51.456;12.626;2023-03-24T16:48:19;13.50;66.70
13332;DHT22;6735;51.456;12.626;2023-03-24T16:50:49;13.40;67.00
13332;DHT22;6735;51.456;12.626;2023-03-24T16:53:16;13.30;67.70
13332;DHT22;6735;51.456;12.626;2023-03-24T16:55:42;13.20;68.00
13332;DHT22;6735;51.456;12.626;2023-03-24T16:58:11;13.10;68.30
13332;DHT22;6735;51.456;12.626;2023-03-24T17:00:36;13.10;68.70
13332;DHT22;6735;51.456;12.626;2023-03-24T17:03:02;13.00;68.40
13332;DHT22;6735;51.456;12.626;2023-03-24T17:05:50;13.00;68.80
13332;DHT22;6735;51.456;12.626;2023-03-24T17:08:16;13.00;69.30
13332;DHT22;6735;51.456;12.626;2023-03-24T17:10:44;12.90;69.30
13332;DHT22;6735;51.456;12.626;2023-03-24T17:13:19;12.90;69.40
13332;DHT22;6735;51.456;12.626;2023-03-24T17:15:45;12.90;69.40
13332;DHT22;6735;51.456;12.626;2023-03-24T17:18:11;12.80;69.20
13332;DHT22;6735;51.456;12.626;2023-03-24T17:20:36;12.80;69.40
13332;DHT22;6735;51.456;12.626;2023-03-24T17:23:05;12.70;69.70
13332;DHT22;6735;51.456;12.626;2023-03-24T17:25:31;12.70;69.60
13332;DHT22;6735;51.456;12.626;2023-03-24T17:27:57;12.60;69.80
13332;DHT22;6735;51.456;12.626;2023-03-24T17:30:24;12.60;69.90
13332;DHT22;6735;51.456;12.626;2023-03-24T17:32:50;12.60;69.90
13332;DHT22;6735;51.456;12.626;2023-03-24T17:35:17;12.50;70.00
13332;DHT22;6735;51.456;12.626;2023-03-24T17:37:43;12.50;70.00
13332;DHT22;6735;51.456;12.626;2023-03-24T17:40:11;12.40;70.10
13332;DHT22;6735;51.456;12.626;2023-03-24T17:42:38;12.50;70.40
13332;DHT22;6735;51.456;12.626;2023-03-24T17:45:06;12.40;70.30
13332;DHT22;6735;51.456;12.626;2023-03-24T17:47:32;12.40;70.40
13332;DHT22;6735;51.456;12.626;2023-03-24T17:49:57;12.40;69.90
13332;DHT22;6735;51.456;12.626;2023-03-24T17:52:23;12.40;70.10